Weather at İstanbul Airport

Public forecast

Using degrees Celsius for public forecast. Weather courtesy of forecast.io.

Current aviation weather report (METAR) for İstanbul Airport

2024/06/22 11:50 (retrieved 14 minutes ago)

LTFM 221150Z 06018KT 9999 FEW022 25/17 Q1013 NOSIG

Aviation forecast (TAF) for İstanbul Airport

2024/06/22 12:00 (retrieved 4 minutes ago)

TAF LTFM 221040Z 2212/2318 05017KT 9999 FEW020 BECMG 2222/2301 BKN014 BECMG 2306/2309 SCT015